VNKT/KTM METAR and TAF weather

Enter ICAO airport designator
Station Type Date Time Source
VNKT METAR 2020/09/28 09:50 UTC NOAA

VNKT 280950Z 28008KT 9999 FEW015 27/18 Q1012 NOSIG


Station Type Date Time Source
VNKT Decoded METAR 2020/09/28 09:50 UTC NOAA

Kathmandu Airport, Nepal (VNKT) 27-42N 085-22E 1337M
Sep 28, 2020 - 05:50 AM EDT / 2020.09.28 0950 UTC
Wind: from the W (280 degrees) at 9 MPH (8 KT):0
Visibility: greater than 7 mile(s):0
Sky conditions: mostly clear
Temperature: 80 F (27 C)
Dew Point: 64 F (18 C)
Relative Humidity: 57%
Pressure (altimeter): 29.88 in. Hg (1012 hPa)
ob: VNKT 280950Z 28008KT 9999 FEW015 27/18 Q1012 NOSIG
cycle: 10

Station Type Date Time Source
VNKT TAF 2020/09/28 06:54 UTC NOAA

TAF TAF VNKT 280500Z 2806/2906 20004KT 6000 FEW015 SCT030 BKN100
BECMG 2807/2809 27008KT 8000 FEW020 SCT030 BKN100 PROB30 2806/2812 28010KT 5000 -TSRA FEW025CB
BECMG 2813/2814 18003KT 7000 FEW015 SCT025
BECMG 2900/2902 00000KT 5000 BR FEW010 SCT030
BECMG 2903/2904 14003KT 7000 FEW020 SCT030

Example: see airport list